createdAt,value
2022-11-20T00:01:32.805Z,22.67
2022-11-20T00:04:01.120Z,26.87
2022-11-20T00:06:29.498Z,23.73
2022-11-20T00:08:59.175Z,24.63
2022-11-20T00:11:28.354Z,19.43
2022-11-20T00:13:58.475Z,25.60
2022-11-20T00:16:28.461Z,22.13
2022-11-20T00:18:56.091Z,20.97
2022-11-20T00:21:25.604Z,21.87
2022-11-20T00:23:55.521Z,22.43
2022-11-20T00:26:24.668Z,24.93
2022-11-20T00:28:54.732Z,27.10
2022-11-20T00:31:22.558Z,22.33
2022-11-20T00:33:50.641Z,25.13
2022-11-20T00:36:20.002Z,22.87
2022-11-20T00:38:48.091Z,23.10
2022-11-20T00:41:17.130Z,24.70
2022-11-20T00:43:44.726Z,27.03
2022-11-20T00:46:15.465Z,27.53
2022-11-20T00:48:44.083Z,22.20
2022-11-20T00:51:14.277Z,25.97
2022-11-20T00:53:41.781Z,25.70
2022-11-20T00:56:12.930Z,24.10
2022-11-20T00:58:42.693Z,23.03
2022-11-20T01:01:19.745Z,21.43
2022-11-20T01:03:50.178Z,21.10
2022-11-20T01:06:19.346Z,23.70
2022-11-20T01:08:47.925Z,20.27
2022-11-20T01:11:18.274Z,23.83
2022-11-20T01:13:47.401Z,22.10
2022-11-20T01:16:14.643Z,22.53
2022-11-20T01:18:44.823Z,24.20
2022-11-20T01:21:15.082Z,22.10
2022-11-20T01:23:44.206Z,21.67
2022-11-20T01:26:14.621Z,24.60
2022-11-20T01:28:42.862Z,21.23
2022-11-20T01:31:22.558Z,23.37
2022-11-20T01:33:53.153Z,23.63
2022-11-20T01:36:22.237Z,25.40
2022-11-20T01:38:53.814Z,24.20
2022-11-20T01:41:40.321Z,24.77
2022-11-20T01:44:08.237Z,22.10
2022-11-20T01:46:41.080Z,21.80
2022-11-20T01:49:31.225Z,23.17
2022-11-20T01:52:03.988Z,27.13
2022-11-20T01:54:37.778Z,26.20
2022-11-20T01:57:07.761Z,24.27
2022-11-20T01:59:37.426Z,24.83
2022-11-20T02:02:04.855Z,24.60
2022-11-20T02:04:32.274Z,25.07
2022-11-20T02:07:05.958Z,24.30
2022-11-20T02:09:33.412Z,25.00
2022-11-20T02:12:01.277Z,22.67
2022-11-20T02:14:29.002Z,25.83
2022-11-20T02:16:56.735Z,25.00
2022-11-20T02:19:26.301Z,22.20
2022-11-20T02:22:08.847Z,24.93
2022-11-20T02:24:36.284Z,24.60
2022-11-20T02:27:11.329Z,21.13
2022-11-20T02:29:47.470Z,23.77
2022-11-20T02:32:28.213Z,25.83
2022-11-20T02:34:56.143Z,23.97
2022-11-20T02:37:24.316Z,23.67
2022-11-20T02:39:52.976Z,23.70
2022-11-20T02:42:20.224Z,24.53
2022-11-20T02:44:47.623Z,24.40
2022-11-20T02:47:14.853Z,23.13
2022-11-20T02:49:42.494Z,25.87
2022-11-20T02:52:09.764Z,23.23
2022-11-20T02:54:36.995Z,28.87
2022-11-20T02:57:04.275Z,25.13
2022-11-20T02:59:31.545Z,25.20
2022-11-20T03:01:58.793Z,24.60
2022-11-20T03:04:26.039Z,23.03
2022-11-20T03:06:53.268Z,29.53
2022-11-20T03:09:20.869Z,25.07
2022-11-20T03:11:48.607Z,24.10
2022-11-20T03:14:16.124Z,24.77
2022-11-20T03:16:43.566Z,26.47
2022-11-20T03:19:11.790Z,29.40
2022-11-20T03:21:39.271Z,24.57
2022-11-20T03:24:07.138Z,24.50
2022-11-20T03:26:34.650Z,25.63
2022-11-20T03:29:04.496Z,25.00
2022-11-20T03:31:35.991Z,28.07
2022-11-20T03:34:04.670Z,25.37
2022-11-20T03:36:32.611Z,26.37
2022-11-20T03:39:00.468Z,24.37
2022-11-20T03:41:30.758Z,24.10
2022-11-20T03:44:00.712Z,27.43
2022-11-20T03:46:29.312Z,24.30
2022-11-20T03:48:57.291Z,26.23
2022-11-20T03:51:28.648Z,24.53
2022-11-20T03:53:57.726Z,26.20
2022-11-20T03:56:27.914Z,30.50
2022-11-20T03:58:55.631Z,25.07
2022-11-20T04:01:25.939Z,24.67
2022-11-20T04:03:55.646Z,25.67
2022-11-20T04:06:28.778Z,27.37
2022-11-20T04:08:57.218Z,25.67
2022-11-20T04:11:26.908Z,25.27
2022-11-20T04:13:56.878Z,25.13
2022-11-20T04:16:25.845Z,28.27
2022-11-20T04:18:58.937Z,26.47
2022-11-20T04:21:27.055Z,27.50
2022-11-20T04:23:55.519Z,28.07
2022-11-20T04:26:24.837Z,25.23
2022-11-20T04:28:52.625Z,25.57
2022-11-20T04:31:23.289Z,23.43
2022-11-20T04:33:50.906Z,25.83
2022-11-20T04:36:20.818Z,26.03
2022-11-20T04:38:56.550Z,28.33
2022-11-20T04:41:26.970Z,24.20
2022-11-20T04:44:00.758Z,29.27
2022-11-20T04:46:29.289Z,26.20
2022-11-20T04:48:57.140Z,25.97
2022-11-20T04:51:24.900Z,24.93
2022-11-20T04:53:52.280Z,27.40
2022-11-20T04:56:19.942Z,27.60
2022-11-20T04:58:47.177Z,27.27
2022-11-20T05:01:17.007Z,32.10
2022-11-20T05:03:45.123Z,26.03
2022-11-20T05:06:18.232Z,27.10
2022-11-20T05:08:45.585Z,27.80
2022-11-20T05:11:19.368Z,26.00
2022-11-20T05:13:46.857Z,28.90
2022-11-20T05:16:16.778Z,29.23
2022-11-20T05:18:45.282Z,25.03
2022-11-20T05:21:14.026Z,31.17
2022-11-20T05:23:42.069Z,30.70
2022-11-20T05:26:17.013Z,29.63
2022-11-20T05:28:44.668Z,29.63
2022-11-20T05:31:27.185Z,27.37
2022-11-20T05:33:57.928Z,24.63
2022-11-20T05:36:25.348Z,28.60
2022-11-20T05:38:56.617Z,28.33
2022-11-20T05:41:25.958Z,26.20
2022-11-20T05:43:53.380Z,27.33
2022-11-20T05:46:27.776Z,26.93
2022-11-20T05:48:57.555Z,28.47
2022-11-20T05:51:25.917Z,26.47
2022-11-20T05:53:53.160Z,25.80
2022-11-20T05:56:22.111Z,28.17
2022-11-20T05:58:50.194Z,27.07
2022-11-20T06:01:23.854Z,26.27
2022-11-20T06:03:52.329Z,26.43
2022-11-20T06:06:21.011Z,27.60
2022-11-20T06:08:49.201Z,28.40
2022-11-20T06:11:16.786Z,27.67
2022-11-20T06:13:44.552Z,28.80
2022-11-20T06:16:13.744Z,27.60
2022-11-20T06:18:41.294Z,25.70
2022-11-20T06:21:12.045Z,25.60
2022-11-20T06:23:39.787Z,30.13
2022-11-20T06:26:12.610Z,33.33
2022-11-20T06:28:40.474Z,34.70
2022-11-20T06:31:08.757Z,30.07
2022-11-20T06:33:36.243Z,29.63
2022-11-20T06:36:10.394Z,27.53
2022-11-20T06:38:39.161Z,40.23
2022-11-20T06:41:08.089Z,28.37
2022-11-20T06:43:35.493Z,29.70
2022-11-20T06:46:03.272Z,29.80
2022-11-20T06:48:30.793Z,26.33
2022-11-20T06:50:58.485Z,28.07
2022-11-20T06:53:26.577Z,26.57
2022-11-20T06:55:56.837Z,26.33
2022-11-20T06:58:24.189Z,26.97
2022-11-20T07:00:51.441Z,25.73
2022-11-20T07:03:18.782Z,25.80
2022-11-20T07:05:47.233Z,26.40
2022-11-20T07:08:14.649Z,27.23
2022-11-20T07:10:41.934Z,26.33
2022-11-20T07:13:09.193Z,23.70
2022-11-20T07:15:36.585Z,23.57
2022-11-20T07:18:04.326Z,25.33
2022-11-20T07:20:31.769Z,26.83
2022-11-20T07:22:59.721Z,28.60
2022-11-20T07:25:28.644Z,25.40
2022-11-20T07:28:00.140Z,25.80
2022-11-20T07:30:31.090Z,27.07
2022-11-20T07:32:58.784Z,28.73
2022-11-20T07:35:26.749Z,27.87
2022-11-20T07:37:54.013Z,27.50
2022-11-20T07:40:21.327Z,26.53
2022-11-20T07:42:53.391Z,27.40
2022-11-20T07:45:22.239Z,27.87
2022-11-20T07:47:49.737Z,28.40
2022-11-20T07:50:17.470Z,26.43
2022-11-20T07:52:45.013Z,26.47
2022-11-20T07:55:13.205Z,30.07
2022-11-20T07:57:40.519Z,29.13
2022-11-20T08:00:10.175Z,25.80
2022-11-20T08:02:41.622Z,30.60
2022-11-20T08:05:10.706Z,29.50
2022-11-20T08:07:39.743Z,28.83
2022-11-20T08:10:09.306Z,25.53
2022-11-20T08:12:54.905Z,29.40
2022-11-20T08:15:22.350Z,28.93
2022-11-20T08:18:15.575Z,26.93
2022-11-20T08:20:37.159Z,29.37
2022-11-20T08:23:06.763Z,28.63
2022-11-20T08:25:35.970Z,28.47
2022-11-20T08:28:18.330Z,29.37
2022-11-20T08:30:48.045Z,28.77
2022-11-20T08:33:15.505Z,27.07
2022-11-20T08:35:43.871Z,29.87
2022-11-20T08:38:11.267Z,30.50
2022-11-20T08:40:38.510Z,27.90
2022-11-20T08:43:05.808Z,28.53
2022-11-20T08:45:35.020Z,33.90
2022-11-20T08:48:04.314Z,35.77
2022-11-20T08:50:33.905Z,29.90
2022-11-20T08:53:07.694Z,33.27
2022-11-20T08:55:38.225Z,30.90
2022-11-20T08:58:06.238Z,33.87
2022-11-20T09:00:34.856Z,27.67
2022-11-20T09:03:02.996Z,31.77
2022-11-20T09:05:30.584Z,34.83
2022-11-20T09:07:59.106Z,31.43
2022-11-20T09:10:27.638Z,27.40
2022-11-20T09:12:56.237Z,31.50
2022-11-20T09:15:24.855Z,30.30
2022-11-20T09:17:57.649Z,30.77
2022-11-20T09:20:25.791Z,32.00
2022-11-20T09:22:53.046Z,33.60
2022-11-20T09:25:20.306Z,28.57
2022-11-20T09:27:47.959Z,29.73
2022-11-20T09:30:16.611Z,31.57
2022-11-20T09:32:44.159Z,29.00
2022-11-20T09:35:12.138Z,29.57
2022-11-20T09:37:39.677Z,31.20
2022-11-20T09:40:08.017Z,44.33
2022-11-20T09:42:46.015Z,28.87
2022-11-20T09:45:50.664Z,27.37
2022-11-20T09:48:45.147Z,29.43
2022-11-20T09:51:42.637Z,32.10
2022-11-20T09:54:22.042Z,27.83
2022-11-20T09:56:57.389Z,29.87
2022-11-20T09:59:34.962Z,27.53
2022-11-20T10:02:10.039Z,29.13
2022-11-20T10:04:44.611Z,29.00
2022-11-20T10:07:38.054Z,29.17
2022-11-20T10:10:06.005Z,27.03
2022-11-20T10:13:04.220Z,34.07
2022-11-20T10:15:40.009Z,29.93
2022-11-20T10:18:40.514Z,26.47
2022-11-20T10:21:14.262Z,26.17
2022-11-20T10:23:59.862Z,26.50
2022-11-20T10:26:56.475Z,27.07
2022-11-20T10:29:37.508Z,25.30
2022-11-20T10:32:12.474Z,27.10
2022-11-20T10:34:53.725Z,27.73
2022-11-20T10:37:28.873Z,27.70
2022-11-20T10:40:20.937Z,25.40
2022-11-20T10:42:54.827Z,28.37
2022-11-20T10:45:25.137Z,26.57
2022-11-20T10:48:17.443Z,28.63
2022-11-20T10:51:15.309Z,26.80
2022-11-20T10:53:49.099Z,27.97
2022-11-20T10:56:39.531Z,27.00
2022-11-20T10:59:35.043Z,28.00
2022-11-20T11:02:03.462Z,27.40
2022-11-20T11:04:51.081Z,27.50
2022-11-20T11:07:40.304Z,27.03
2022-11-20T11:10:25.228Z,30.07
2022-11-20T11:12:53.086Z,27.73
2022-11-20T11:15:37.587Z,28.73
2022-11-20T11:18:05.603Z,26.70
2022-11-20T11:20:33.526Z,27.97
2022-11-20T11:23:01.430Z,27.93
2022-11-20T11:25:34.664Z,29.27
2022-11-20T11:28:05.439Z,27.67
2022-11-20T11:30:44.218Z,27.17
2022-11-20T11:33:31.975Z,29.73
2022-11-20T11:36:00.849Z,27.23
2022-11-20T11:38:37.454Z,26.33
2022-11-20T11:41:07.128Z,31.03
2022-11-20T11:43:55.779Z,26.53
2022-11-20T11:46:33.086Z,27.90
2022-11-20T11:49:06.485Z,28.73
2022-11-20T11:51:59.824Z,30.00
2022-11-20T11:54:35.836Z,27.90
2022-11-20T11:57:11.389Z,30.20
2022-11-20T12:00:03.470Z,27.77
2022-11-20T12:02:45.868Z,27.60
2022-11-20T12:05:40.049Z,26.90
2022-11-20T12:08:59.416Z,32.33
2022-11-20T12:11:55.436Z,29.30
2022-11-20T12:14:44.060Z,27.07
2022-11-20T12:17:13.932Z,29.57
2022-11-20T12:19:41.964Z,29.20
2022-11-20T12:22:42.361Z,32.90
2022-11-20T12:25:22.384Z,36.33
2022-11-20T12:28:02.331Z,35.30
2022-11-20T12:30:33.472Z,33.53
2022-11-20T12:33:23.757Z,32.47
2022-11-20T12:36:29.843Z,27.70
2022-11-20T12:39:09.851Z,28.43
2022-11-20T12:42:33.096Z,27.60
2022-11-20T12:46:08.490Z,26.57
2022-11-20T12:48:54.237Z,28.07
2022-11-20T12:51:33.742Z,26.37
2022-11-20T12:54:27.976Z,27.10
2022-11-20T12:57:37.341Z,26.07
2022-11-20T13:00:08.497Z,30.73
2022-11-20T13:02:53.804Z,31.40
2022-11-20T13:05:21.101Z,29.30
2022-11-20T13:07:52.506Z,27.77
2022-11-20T13:10:40.318Z,27.93
2022-11-20T13:13:24.472Z,28.60
2022-11-20T13:16:04.614Z,29.20
2022-11-20T13:18:42.753Z,27.87
2022-11-20T13:21:35.817Z,31.10
2022-11-20T13:24:08.368Z,26.77
2022-11-20T13:26:35.732Z,27.90
2022-11-20T13:29:12.816Z,26.03
2022-11-20T13:31:45.976Z,29.07
2022-11-20T13:34:25.405Z,33.57
2022-11-20T13:36:59.017Z,36.00
2022-11-20T13:39:36.947Z,29.57
2022-11-20T13:42:21.430Z,36.20
2022-11-20T13:44:54.357Z,31.93
2022-11-20T13:47:29.430Z,28.63
2022-11-20T13:49:59.745Z,30.80
2022-11-20T13:53:05.044Z,40.07
2022-11-20T13:55:39.047Z,50.07
2022-11-20T13:58:45.425Z,29.87
2022-11-20T14:01:20.239Z,35.53
2022-11-20T14:04:05.676Z,26.60
2022-11-20T14:06:46.547Z,33.37
2022-11-20T14:09:29.601Z,35.13
2022-11-20T14:11:57.860Z,43.90
2022-11-20T14:14:27.939Z,39.33
2022-11-20T14:17:18.052Z,30.13
2022-11-20T14:19:47.794Z,27.87
2022-11-20T14:22:24.504Z,27.77
2022-11-20T14:25:13.402Z,35.53
2022-11-20T14:27:44.356Z,37.10
2022-11-20T14:30:22.589Z,47.63
2022-11-20T14:32:51.899Z,34.00
2022-11-20T14:35:26.664Z,30.87
2022-11-20T14:37:54.840Z,31.00
2022-11-20T14:40:38.903Z,36.80
2022-11-20T14:43:27.142Z,28.13
2022-11-20T14:46:00.487Z,36.87
2022-11-20T14:48:38.030Z,29.53
2022-11-20T14:51:05.396Z,29.30
2022-11-20T14:53:32.703Z,28.70
2022-11-20T14:56:02.370Z,28.87
2022-11-20T14:58:32.851Z,29.43
2022-11-20T15:01:02.810Z,30.63
2022-11-20T15:03:41.436Z,36.83
2022-11-20T15:06:12.987Z,35.07
2022-11-20T15:08:51.118Z,34.73
2022-11-20T15:11:30.433Z,35.50
2022-11-20T15:13:59.265Z,33.67
2022-11-20T15:16:28.823Z,33.73
2022-11-20T15:18:56.628Z,30.20
2022-11-20T15:21:24.264Z,32.20
2022-11-20T15:23:51.660Z,29.83
2022-11-20T15:26:26.752Z,30.87
2022-11-20T15:28:54.977Z,30.90
2022-11-20T15:31:24.272Z,32.73
2022-11-20T15:33:52.023Z,29.07
2022-11-20T15:36:19.340Z,33.70
2022-11-20T15:38:46.838Z,30.50
2022-11-20T15:41:14.225Z,32.20
2022-11-20T15:43:41.473Z,34.53
2022-11-20T15:46:26.234Z,35.27
2022-11-20T15:48:56.438Z,33.07
2022-11-20T15:51:38.296Z,35.73
2022-11-20T15:54:16.705Z,42.57
2022-11-20T15:56:43.979Z,48.30
2022-11-20T15:59:11.305Z,124.93
2022-11-20T16:01:38.740Z,50.50
2022-11-20T16:04:10.975Z,51.23
2022-11-20T16:06:38.728Z,49.80
2022-11-20T16:09:06.232Z,44.80
2022-11-20T16:11:34.520Z,33.20
2022-11-20T16:14:20.429Z,27.13
2022-11-20T16:16:48.063Z,31.20
2022-11-20T16:19:16.530Z,29.17
2022-11-20T16:21:43.907Z,31.90
2022-11-20T16:24:13.818Z,29.37
2022-11-20T16:26:41.828Z,29.27
2022-11-20T16:29:09.460Z,32.70
2022-11-20T16:31:37.122Z,33.37
2022-11-20T16:34:11.889Z,34.93
2022-11-20T16:36:46.160Z,32.60
2022-11-20T16:39:15.072Z,46.43
2022-11-20T16:41:45.171Z,36.53
2022-11-20T16:44:12.519Z,36.07
2022-11-20T16:46:41.130Z,40.37
2022-11-20T16:49:13.451Z,97.20
2022-11-20T16:51:41.317Z,44.30
2022-11-20T16:54:10.112Z,78.60
2022-11-20T16:56:38.059Z,55.43
2022-11-20T16:59:07.815Z,42.77
2022-11-20T17:01:38.796Z,57.57
2022-11-20T17:04:07.345Z,40.67
2022-11-20T17:06:37.099Z,43.17
2022-11-20T17:09:04.850Z,40.77
2022-11-20T17:11:33.669Z,34.33
2022-11-20T17:14:02.362Z,38.27
2022-11-20T17:16:31.066Z,36.63
2022-11-20T17:19:03.056Z,40.87
2022-11-20T17:21:38.263Z,37.50
2022-11-20T17:24:09.252Z,40.10
2022-11-20T17:26:39.010Z,40.93
2022-11-20T17:29:10.422Z,70.13
2022-11-20T17:31:38.633Z,90.33
2022-11-20T17:34:07.739Z,52.13
2022-11-20T17:36:35.442Z,60.60
2022-11-20T17:39:03.116Z,83.97
2022-11-20T17:41:30.914Z,58.40
2022-11-20T17:44:00.220Z,61.07
2022-11-20T17:46:32.856Z,62.07
2022-11-20T17:49:01.296Z,61.90
2022-11-20T17:51:32.314Z,54.53
2022-11-20T17:54:01.705Z,62.57
2022-11-20T17:56:52.367Z,58.83
2022-11-20T17:59:20.066Z,59.37
2022-11-20T18:01:47.632Z,54.20
2022-11-20T18:04:15.632Z,55.37
2022-11-20T18:06:43.010Z,47.90
2022-11-20T18:09:10.370Z,49.87
2022-11-20T18:11:40.060Z,40.40
2022-11-20T18:14:32.272Z,44.57
2022-11-20T18:17:04.061Z,40.67
2022-11-20T18:19:42.639Z,44.77
2022-11-20T18:22:17.892Z,46.33
2022-11-20T18:24:46.215Z,45.77
2022-11-20T18:27:20.598Z,43.13
2022-11-20T18:29:52.589Z,41.27
2022-11-20T18:32:21.532Z,43.83
2022-11-20T18:34:49.021Z,46.17
2022-11-20T18:37:16.737Z,51.17
2022-11-20T18:39:44.310Z,45.30
2022-11-20T18:42:34.934Z,43.60
2022-11-20T18:45:04.468Z,48.20
2022-11-20T18:47:36.119Z,45.20
2022-11-20T18:50:06.070Z,50.10
2022-11-20T18:52:38.166Z,46.40
2022-11-20T18:55:06.332Z,52.37
2022-11-20T18:57:34.129Z,46.63
2022-11-20T19:00:08.035Z,47.40
2022-11-20T19:02:40.892Z,51.03
2022-11-20T19:05:14.746Z,50.87
2022-11-20T19:07:42.779Z,52.97
2022-11-20T19:10:10.294Z,246.43
2022-11-20T19:12:37.739Z,132.93
2022-11-20T19:15:05.576Z,114.63
2022-11-20T19:17:33.871Z,114.10
2022-11-20T19:20:01.296Z,73.87
2022-11-20T19:22:28.787Z,45.10
2022-11-20T19:24:56.100Z,39.70
2022-11-20T19:27:23.349Z,37.73
2022-11-20T19:29:50.767Z,37.23
2022-11-20T19:32:18.185Z,36.70
2022-11-20T19:34:45.415Z,37.93
2022-11-20T19:37:14.229Z,35.87
2022-11-20T19:39:41.927Z,37.03
2022-11-20T19:42:09.169Z,37.10
2022-11-20T19:44:36.529Z,38.67
2022-11-20T19:47:08.952Z,37.60
2022-11-20T19:49:41.864Z,37.87
2022-11-20T19:52:09.476Z,40.50
2022-11-20T19:54:37.353Z,38.53
2022-11-20T19:57:04.603Z,38.10
2022-11-20T19:59:31.981Z,38.97
2022-11-20T20:01:59.548Z,42.67
2022-11-20T20:04:27.394Z,38.03
2022-11-20T20:06:55.018Z,36.83
2022-11-20T20:09:23.818Z,33.73
2022-11-20T20:11:51.652Z,35.47
2022-11-20T20:14:19.201Z,35.10
2022-11-20T20:16:46.757Z,35.17
2022-11-20T20:19:15.574Z,37.07
2022-11-20T20:21:43.447Z,37.60
2022-11-20T20:24:11.970Z,38.73
2022-11-20T20:26:39.574Z,36.67
2022-11-20T20:29:07.169Z,37.57
2022-11-20T20:31:34.841Z,38.70
2022-11-20T20:34:05.196Z,39.57
2022-11-20T20:36:33.168Z,40.57
2022-11-20T20:39:02.965Z,42.90
2022-11-20T20:41:30.895Z,44.03
2022-11-20T20:44:16.669Z,40.57
2022-11-20T20:46:43.955Z,41.57
2022-11-20T20:49:11.304Z,43.50
2022-11-20T20:51:38.696Z,39.53
2022-11-20T20:54:06.182Z,39.10
2022-11-20T20:56:33.439Z,41.20
2022-11-20T20:59:00.691Z,39.03
2022-11-20T21:01:28.918Z,42.47
2022-11-20T21:03:57.604Z,41.10
2022-11-20T21:06:25.409Z,38.53
2022-11-20T21:08:53.044Z,41.33
2022-11-20T21:11:21.160Z,39.40
2022-11-20T21:13:49.382Z,45.97
2022-11-20T21:16:18.950Z,44.90
2022-11-20T21:18:46.739Z,43.57
2022-11-20T21:21:34.023Z,41.97
2022-11-20T21:24:01.576Z,43.17
2022-11-20T21:26:28.934Z,47.07
2022-11-20T21:28:57.572Z,49.43
2022-11-20T21:31:26.767Z,45.83
2022-11-20T21:33:56.069Z,41.53
2022-11-20T21:36:26.325Z,43.37
2022-11-20T21:38:55.395Z,39.47
2022-11-20T21:41:24.052Z,42.13
2022-11-20T21:44:23.611Z,44.70
2022-11-20T21:46:41.691Z,41.87
2022-11-20T21:49:09.747Z,40.80
2022-11-20T21:51:37.513Z,42.37
2022-11-20T21:54:04.975Z,39.13
2022-11-20T21:56:32.425Z,43.87
2022-11-20T21:58:59.745Z,40.30
2022-11-20T22:01:29.503Z,39.23
2022-11-20T22:04:01.737Z,41.33
2022-11-20T22:06:33.499Z,34.67
2022-11-20T22:09:01.811Z,32.63
2022-11-20T22:11:29.595Z,33.87
2022-11-20T22:14:15.883Z,31.90
2022-11-20T22:16:43.229Z,35.23
2022-11-20T22:19:10.732Z,32.90
2022-11-20T22:21:40.669Z,35.27
2022-11-20T22:24:12.094Z,35.93
2022-11-20T22:26:40.656Z,32.17
2022-11-20T22:29:12.301Z,38.60
2022-11-20T22:31:39.712Z,41.40
2022-11-20T22:34:07.073Z,34.47
2022-11-20T22:36:37.423Z,26.77
2022-11-20T22:39:05.297Z,29.30
2022-11-20T22:41:32.832Z,27.90
2022-11-20T22:44:03.542Z,23.03
2022-11-20T22:46:35.945Z,24.00
2022-11-20T22:49:06.049Z,21.03
2022-11-20T22:51:35.750Z,21.60
2022-11-20T22:54:03.905Z,20.13
2022-11-20T22:56:31.960Z,19.60
2022-11-20T22:58:59.328Z,19.37
2022-11-20T23:01:29.236Z,18.10
2022-11-20T23:04:02.128Z,19.53
2022-11-20T23:06:29.953Z,19.83
2022-11-20T23:08:57.229Z,17.50
2022-11-20T23:11:26.872Z,19.90
2022-11-20T23:14:02.274Z,17.40
2022-11-20T23:16:30.948Z,16.83
2022-11-20T23:19:07.115Z,16.00
2022-11-20T23:21:36.349Z,18.80
2022-11-20T23:24:04.543Z,16.83
2022-11-20T23:26:35.119Z,18.33
2022-11-20T23:29:02.566Z,17.97
2022-11-20T23:31:31.879Z,17.87
2022-11-20T23:33:59.553Z,20.17
2022-11-20T23:36:27.293Z,15.20
2022-11-20T23:38:54.784Z,16.70
2022-11-20T23:41:22.041Z,15.33
2022-11-20T23:43:49.283Z,15.97
2022-11-20T23:46:17.161Z,15.73
2022-11-20T23:48:45.600Z,16.87
2022-11-20T23:51:14.050Z,16.23
2022-11-20T23:53:41.427Z,16.93
2022-11-20T23:56:09.062Z,20.00
2022-11-20T23:58:37.970Z,18.47
